AAL1414 KCHS-KDCA
Flight info
| Callsign | AAL1414 |
|---|---|
| Flight time | 1h 3m |
| Altitude | 39000 |
| Route | SWPFX3 FILLI SARKY Q113 AARNN WAVES CAPSS3 |
| Aircraft | A319/M-SDE3FGHIRWY/LB1 |
Departure
| Time | 2026-04-26 18:52 |
|---|---|
| Airport | Charleston International Airport (KCHS) |
Arrival
| Time | 2026-04-26 19:55 |
|---|---|
| Airport | Ronald Reagan Washington National Airport (KDCA) |
| Time | Latitude | Longitude | Altitude | Speed | Heading |
|---|---|---|---|---|---|
| 2026-04-26 18:20 | 32.88604 | -80.03748 | 38 ft | 0 kts | 241° |
| 2026-04-26 18:37 | 32.88605 | -80.03745 | 36 ft | 2 kts | 241° |
| 2026-04-26 18:37 | 32.88614 | -80.03726 | 37 ft | 3 kts | 241° |
| 2026-04-26 18:37 | 32.88623 | -80.03706 | 34 ft | 3 kts | 239° |
| 2026-04-26 18:37 | 32.88635 | -80.03686 | 37 ft | 3 kts | 226° |
| 2026-04-26 18:38 | 32.88650 | -80.03670 | 37 ft | 3 kts | 211° |
| 2026-04-26 18:38 | 32.88668 | -80.03659 | 38 ft | 3 kts | 194° |
| 2026-04-26 18:38 | 32.88680 | -80.03656 | 36 ft | 1 kts | 188° |
| 2026-04-26 18:38 | 32.88682 | -80.03656 | 37 ft | 0 kts | 188° |
| 2026-04-26 18:41 | 32.88675 | -80.03654 | 38 ft | 3 kts | 168° |
| 2026-04-26 18:41 | 32.88677 | -80.03646 | 37 ft | 0 kts | 75° |
| 2026-04-26 18:42 | 32.88694 | -80.03637 | 37 ft | 6 kts | 11° |
| 2026-04-26 18:42 | 32.88744 | -80.03636 | 38 ft | 9 kts | 0° |
| 2026-04-26 18:42 | 32.88812 | -80.03635 | 39 ft | 10 kts | 1° |
| 2026-04-26 18:42 | 32.88873 | -80.03629 | 41 ft | 8 kts | 7° |
| 2026-04-26 18:43 | 32.88924 | -80.03620 | 44 ft | 7 kts | 9° |
| 2026-04-26 18:43 | 32.88971 | -80.03613 | 46 ft | 7 kts | 6° |
| 2026-04-26 18:43 | 32.89014 | -80.03609 | 47 ft | 6 kts | 5° |
| 2026-04-26 18:43 | 32.89069 | -80.03602 | 47 ft | 11 kts | 5° |
| 2026-04-26 18:44 | 32.89149 | -80.03597 | 48 ft | 12 kts | 2° |
| 2026-04-26 18:44 | 32.89242 | -80.03595 | 47 ft | 14 kts | 1° |
| 2026-04-26 18:44 | 32.89349 | -80.03591 | 46 ft | 17 kts | 1° |
| 2026-04-26 18:44 | 32.89472 | -80.03585 | 44 ft | 19 kts | 2° |
| 2026-04-26 18:45 | 32.89612 | -80.03582 | 42 ft | 21 kts | 2° |
| 2026-04-26 18:45 | 32.89710 | -80.03577 | 42 ft | 21 kts | 3° |
| 2026-04-26 18:45 | 32.89858 | -80.03572 | 44 ft | 21 kts | 1° |
| 2026-04-26 18:45 | 32.90002 | -80.03568 | 47 ft | 20 kts | 2° |
| 2026-04-26 18:46 | 32.90135 | -80.03531 | 50 ft | 19 kts | 15° |
| 2026-04-26 18:46 | 32.90224 | -80.03616 | 52 ft | 17 kts | 297° |
| 2026-04-26 18:46 | 32.90302 | -80.03726 | 53 ft | 19 kts | 319° |
| 2026-04-26 18:46 | 32.90402 | -80.03840 | 52 ft | 21 kts | 318° |
| 2026-04-26 18:47 | 32.90513 | -80.03952 | 51 ft | 22 kts | 317° |
| 2026-04-26 18:47 | 32.90628 | -80.04085 | 46 ft | 24 kts | 316° |
| 2026-04-26 18:47 | 32.90753 | -80.04210 | 49 ft | 24 kts | 318° |
| 2026-04-26 18:47 | 32.90835 | -80.04356 | 51 ft | 20 kts | 281° |
| 2026-04-26 18:48 | 32.90805 | -80.04492 | 49 ft | 17 kts | 236° |
| 2026-04-26 18:48 | 32.90725 | -80.04614 | 49 ft | 19 kts | 233° |
| 2026-04-26 18:48 | 32.90761 | -80.04711 | 49 ft | 15 kts | 324° |
| 2026-04-26 18:48 | 32.90850 | -80.04774 | 51 ft | 15 kts | 329° |
| 2026-04-26 18:49 | 32.90935 | -80.04838 | 53 ft | 15 kts | 328° |
| 2026-04-26 18:49 | 32.91028 | -80.04908 | 52 ft | 17 kts | 327° |
| 2026-04-26 18:49 | 32.91132 | -80.04988 | 51 ft | 18 kts | 330° |
| 2026-04-26 18:49 | 32.91225 | -80.04936 | 54 ft | 15 kts | 58° |
| 2026-04-26 18:50 | 32.91240 | -80.04908 | 54 ft | 0 kts | 58° |
| 2026-04-26 18:51 | 32.91276 | -80.04832 | 52 ft | 18 kts | 70° |
| 2026-04-26 18:51 | 32.91206 | -80.04736 | 55 ft | 18 kts | 149° |
| 2026-04-26 18:51 | 32.90930 | -80.04525 | 53 ft | 93 kts | 147° |
| 2026-04-26 18:52 | 32.90139 | -80.03923 | 52 ft | 173 kts | 146° |
| 2026-04-26 18:52 | 32.89035 | -80.03096 | 571 ft | 196 kts | 144° |
| 2026-04-26 18:52 | 32.87886 | -80.02182 | 1324 ft | 197 kts | 135° |
| 2026-04-26 18:52 | 32.87282 | -80.00713 | 1872 ft | 210 kts | 89° |
| 2026-04-26 18:53 | 32.87738 | -79.99032 | 2398 ft | 227 kts | 50° |
| 2026-04-26 18:53 | 32.88944 | -79.97663 | 3005 ft | 250 kts | 37° |
| 2026-04-26 18:53 | 32.90324 | -79.96320 | 3713 ft | 261 kts | 37° |
| 2026-04-26 18:53 | 32.91744 | -79.94949 | 3937 ft | 264 kts | 37° |
| 2026-04-26 18:54 | 32.93249 | -79.93719 | 4013 ft | 263 kts | 23° |
| 2026-04-26 18:54 | 32.95029 | -79.93227 | 4746 ft | 265 kts | 0° |
| 2026-04-26 18:54 | 32.96881 | -79.93247 | 5831 ft | 267 kts | 357° |
| 2026-04-26 18:54 | 32.98755 | -79.93297 | 6863 ft | 272 kts | 356° |
| 2026-04-26 18:55 | 33.00660 | -79.93359 | 7845 ft | 276 kts | 356° |
| 2026-04-26 18:55 | 33.02568 | -79.93426 | 8822 ft | 280 kts | 355° |
| 2026-04-26 18:55 | 33.04557 | -79.93501 | 9826 ft | 284 kts | 355° |
| 2026-04-26 18:55 | 33.06517 | -79.93578 | 10694 ft | 288 kts | 355° |
| 2026-04-26 18:56 | 33.08542 | -79.93662 | 11563 ft | 293 kts | 355° |
| 2026-04-26 18:56 | 33.10598 | -79.93749 | 12408 ft | 301 kts | 355° |
| 2026-04-26 18:56 | 33.12776 | -79.93842 | 12757 ft | 325 kts | 355° |
| 2026-04-26 18:56 | 33.15113 | -79.93942 | 13136 ft | 345 kts | 355° |
| 2026-04-26 18:57 | 33.17547 | -79.94041 | 13833 ft | 354 kts | 355° |
| 2026-04-26 18:57 | 33.19218 | -79.94108 | 14306 ft | 358 kts | 355° |
| 2026-04-26 18:57 | 33.22540 | -79.94041 | 15290 ft | 366 kts | 5° |
| 2026-04-26 18:57 | 33.25051 | -79.93404 | 16058 ft | 371 kts | 10° |
| 2026-04-26 18:58 | 33.27571 | -79.92697 | 16826 ft | 374 kts | 9° |
| 2026-04-26 18:58 | 33.30120 | -79.91985 | 17580 ft | 377 kts | 9° |
| 2026-04-26 18:58 | 33.32688 | -79.91270 | 18327 ft | 381 kts | 9° |
| 2026-04-26 18:58 | 33.35283 | -79.90553 | 18976 ft | 385 kts | 9° |
| 2026-04-26 18:59 | 33.37909 | -79.89826 | 19614 ft | 389 kts | 8° |
| 2026-04-26 18:59 | 33.40560 | -79.89091 | 20248 ft | 393 kts | 8° |
| 2026-04-26 18:59 | 33.43236 | -79.88349 | 20769 ft | 397 kts | 8° |
| 2026-04-26 18:59 | 33.45928 | -79.87605 | 20941 ft | 397 kts | 8° |
| 2026-04-26 19:00 | 33.48621 | -79.86861 | 20984 ft | 397 kts | 8° |
| 2026-04-26 19:00 | 33.51317 | -79.86116 | 21221 ft | 400 kts | 7° |
| 2026-04-26 19:00 | 33.54036 | -79.85366 | 21895 ft | 403 kts | 7° |
| 2026-04-26 19:00 | 33.56776 | -79.84607 | 22530 ft | 406 kts | 7° |
| 2026-04-26 19:01 | 33.59546 | -79.83836 | 23132 ft | 409 kts | 7° |
| 2026-04-26 19:01 | 33.62327 | -79.83061 | 23686 ft | 413 kts | 7° |
| 2026-04-26 19:01 | 33.65132 | -79.82282 | 24171 ft | 416 kts | 7° |
| 2026-04-26 19:01 | 33.67960 | -79.81496 | 24641 ft | 419 kts | 7° |
| 2026-04-26 19:02 | 33.70809 | -79.80702 | 25103 ft | 422 kts | 7° |
| 2026-04-26 19:02 | 33.73677 | -79.79903 | 25564 ft | 425 kts | 7° |
| 2026-04-26 19:02 | 33.76565 | -79.79098 | 26020 ft | 428 kts | 7° |
| 2026-04-26 19:02 | 33.78487 | -79.78562 | 26324 ft | 430 kts | 7° |
| 2026-04-26 19:03 | 33.82404 | -79.77460 | 26928 ft | 435 kts | 8° |
| 2026-04-26 19:03 | 33.85294 | -79.76235 | 27359 ft | 447 kts | 19° |
| 2026-04-26 19:03 | 33.88005 | -79.74316 | 27766 ft | 458 kts | 31° |
| 2026-04-26 19:03 | 33.90576 | -79.71973 | 27924 ft | 469 kts | 32° |
| 2026-04-26 19:04 | 33.93193 | -79.69577 | 28061 ft | 477 kts | 32° |
| 2026-04-26 19:04 | 33.95823 | -79.67168 | 28234 ft | 484 kts | 32° |
| 2026-04-26 19:04 | 33.98512 | -79.64706 | 28609 ft | 486 kts | 32° |
| 2026-04-26 19:04 | 34.01207 | -79.62235 | 29082 ft | 487 kts | 32° |
| 2026-04-26 19:05 | 34.06590 | -79.57296 | 30068 ft | 486 kts | 32° |
| 2026-04-26 19:05 | 34.09277 | -79.54829 | 30527 ft | 485 kts | 32° |
| 2026-04-26 19:05 | 34.11959 | -79.52360 | 30896 ft | 484 kts | 32° |
| 2026-04-26 19:06 | 34.14628 | -79.49898 | 31002 ft | 483 kts | 32° |
| 2026-04-26 19:06 | 34.19955 | -79.44982 | 31023 ft | 481 kts | 32° |
| 2026-04-26 19:07 | 34.25280 | -79.40062 | 31021 ft | 482 kts | 32° |
| 2026-04-26 19:07 | 34.30603 | -79.35144 | 31012 ft | 482 kts | 32° |
| 2026-04-26 19:08 | 34.35930 | -79.30222 | 31018 ft | 482 kts | 32° |
| 2026-04-26 19:08 | 34.41248 | -79.25294 | 31000 ft | 482 kts | 32° |
| 2026-04-26 19:09 | 34.46975 | -79.21273 | 31014 ft | 473 kts | 21° |
| 2026-04-26 19:09 | 34.52854 | -79.17686 | 31021 ft | 473 kts | 21° |
| 2026-04-26 19:10 | 34.58734 | -79.14100 | 31024 ft | 473 kts | 21° |
| 2026-04-26 19:10 | 34.64615 | -79.10508 | 31022 ft | 473 kts | 21° |
| 2026-04-26 19:11 | 34.70498 | -79.06907 | 31024 ft | 473 kts | 21° |
| 2026-04-26 19:11 | 34.76368 | -79.03286 | 31020 ft | 473 kts | 22° |
| 2026-04-26 19:12 | 34.82205 | -78.99685 | 31032 ft | 473 kts | 22° |
| 2026-04-26 19:12 | 34.88072 | -78.96077 | 31044 ft | 473 kts | 22° |
| 2026-04-26 19:13 | 34.93938 | -78.92462 | 31049 ft | 472 kts | 22° |
| 2026-04-26 19:13 | 34.99800 | -78.88837 | 31045 ft | 472 kts | 22° |
| 2026-04-26 19:14 | 35.05654 | -78.85210 | 31046 ft | 472 kts | 22° |
| 2026-04-26 19:14 | 35.11509 | -78.81585 | 31027 ft | 472 kts | 22° |
| 2026-04-26 19:15 | 35.17354 | -78.77960 | 31035 ft | 471 kts | 23° |
| 2026-04-26 19:15 | 35.23197 | -78.74317 | 31074 ft | 471 kts | 23° |
| 2026-04-26 19:16 | 35.29032 | -78.70680 | 31083 ft | 470 kts | 23° |
| 2026-04-26 19:16 | 35.34859 | -78.67051 | 31087 ft | 470 kts | 24° |
| 2026-04-26 19:17 | 35.40675 | -78.63410 | 31086 ft | 470 kts | 24° |
| 2026-04-26 19:17 | 35.46489 | -78.59761 | 31077 ft | 469 kts | 24° |
| 2026-04-26 19:18 | 35.52302 | -78.56112 | 31066 ft | 469 kts | 24° |
| 2026-04-26 19:18 | 35.58064 | -78.52497 | 31072 ft | 468 kts | 24° |
| 2026-04-26 19:19 | 35.63869 | -78.48844 | 31068 ft | 468 kts | 25° |
| 2026-04-26 19:19 | 35.69665 | -78.45186 | 31067 ft | 468 kts | 25° |
| 2026-04-26 19:20 | 35.75451 | -78.41532 | 31067 ft | 468 kts | 25° |
| 2026-04-26 19:20 | 35.81236 | -78.37877 | 31092 ft | 467 kts | 25° |
| 2026-04-26 19:21 | 35.87025 | -78.34217 | 31097 ft | 467 kts | 25° |
| 2026-04-26 19:21 | 35.92805 | -78.30556 | 31113 ft | 467 kts | 25° |
| 2026-04-26 19:22 | 35.98584 | -78.26887 | 31114 ft | 467 kts | 25° |
| 2026-04-26 19:22 | 36.04364 | -78.23214 | 31113 ft | 467 kts | 25° |
| 2026-04-26 19:23 | 36.10138 | -78.19533 | 31107 ft | 467 kts | 25° |
| 2026-04-26 19:23 | 36.15908 | -78.15848 | 31096 ft | 467 kts | 25° |
| 2026-04-26 19:24 | 36.21678 | -78.12169 | 31089 ft | 466 kts | 25° |
| 2026-04-26 19:24 | 36.30293 | -78.06656 | 31075 ft | 466 kts | 26° |
| 2026-04-26 19:25 | 36.34145 | -78.04176 | 31081 ft | 466 kts | 26° |
| 2026-04-26 19:25 | 36.42013 | -77.99843 | 31106 ft | 465 kts | 18° |
| 2026-04-26 19:26 | 36.48073 | -77.97041 | 31126 ft | 465 kts | 18° |
| 2026-04-26 19:26 | 36.54127 | -77.94231 | 31144 ft | 465 kts | 19° |
| 2026-04-26 19:27 | 36.60184 | -77.91407 | 31155 ft | 464 kts | 19° |
| 2026-04-26 19:27 | 36.66228 | -77.88589 | 31157 ft | 464 kts | 19° |
| 2026-04-26 19:28 | 36.72275 | -77.85765 | 31127 ft | 463 kts | 19° |
| 2026-04-26 19:28 | 36.78307 | -77.82934 | 31127 ft | 463 kts | 19° |
| 2026-04-26 19:29 | 36.84330 | -77.80105 | 31126 ft | 463 kts | 19° |
| 2026-04-26 19:29 | 36.90352 | -77.77268 | 31121 ft | 462 kts | 19° |
| 2026-04-26 19:30 | 36.96369 | -77.74425 | 31119 ft | 462 kts | 19° |
| 2026-04-26 19:30 | 37.01356 | -77.72064 | 30960 ft | 458 kts | 19° |
| 2026-04-26 19:31 | 37.05224 | -77.70239 | 30723 ft | 438 kts | 19° |
| 2026-04-26 19:31 | 37.08026 | -77.68912 | 30603 ft | 424 kts | 19° |
| 2026-04-26 19:31 | 37.10772 | -77.67608 | 30473 ft | 410 kts | 19° |
| 2026-04-26 19:31 | 37.13368 | -77.66377 | 30282 ft | 400 kts | 19° |
| 2026-04-26 19:32 | 37.15955 | -77.65154 | 29911 ft | 395 kts | 19° |
| 2026-04-26 19:32 | 37.18512 | -77.63944 | 29496 ft | 391 kts | 19° |
| 2026-04-26 19:32 | 37.21047 | -77.62742 | 29075 ft | 388 kts | 19° |
| 2026-04-26 19:32 | 37.23560 | -77.61547 | 28674 ft | 385 kts | 19° |
| 2026-04-26 19:33 | 37.26057 | -77.60365 | 28266 ft | 382 kts | 18° |
| 2026-04-26 19:33 | 37.28531 | -77.59194 | 27862 ft | 379 kts | 18° |
| 2026-04-26 19:33 | 37.30991 | -77.58028 | 27456 ft | 376 kts | 18° |
| 2026-04-26 19:33 | 37.33429 | -77.56868 | 27061 ft | 373 kts | 19° |
| 2026-04-26 19:34 | 37.35844 | -77.55717 | 26662 ft | 370 kts | 19° |
| 2026-04-26 19:34 | 37.38239 | -77.54575 | 26262 ft | 367 kts | 19° |
| 2026-04-26 19:34 | 37.40617 | -77.53439 | 25870 ft | 364 kts | 19° |
| 2026-04-26 19:34 | 37.42975 | -77.52313 | 25474 ft | 361 kts | 19° |
| 2026-04-26 19:35 | 37.45314 | -77.51197 | 25080 ft | 358 kts | 19° |
| 2026-04-26 19:35 | 37.46881 | -77.50451 | 24816 ft | 356 kts | 19° |
| 2026-04-26 19:35 | 37.49185 | -77.49352 | 24418 ft | 353 kts | 19° |
| 2026-04-26 19:35 | 37.52202 | -77.47904 | 23922 ft | 348 kts | 19° |
| 2026-04-26 19:36 | 37.53698 | -77.47184 | 23669 ft | 346 kts | 19° |
| 2026-04-26 19:36 | 37.55216 | -77.46454 | 23371 ft | 344 kts | 19° |
| 2026-04-26 19:36 | 37.58162 | -77.45040 | 22811 ft | 340 kts | 19° |
| 2026-04-26 19:36 | 37.60419 | -77.44244 | 22423 ft | 336 kts | 13° |
| 2026-04-26 19:37 | 37.62682 | -77.43556 | 22033 ft | 333 kts | 13° |
| 2026-04-26 19:37 | 37.64926 | -77.42870 | 21634 ft | 330 kts | 13° |
| 2026-04-26 19:37 | 37.67148 | -77.42187 | 21247 ft | 327 kts | 13° |
| 2026-04-26 19:37 | 37.69353 | -77.41510 | 20870 ft | 325 kts | 13° |
| 2026-04-26 19:38 | 37.71535 | -77.40839 | 20503 ft | 322 kts | 13° |
| 2026-04-26 19:38 | 37.73703 | -77.40169 | 20144 ft | 319 kts | 13° |
| 2026-04-26 19:38 | 37.75851 | -77.39502 | 19792 ft | 317 kts | 13° |
| 2026-04-26 19:38 | 37.77978 | -77.38843 | 19450 ft | 314 kts | 13° |
| 2026-04-26 19:39 | 37.80094 | -77.38190 | 19112 ft | 312 kts | 13° |
| 2026-04-26 19:39 | 37.82191 | -77.37541 | 18781 ft | 309 kts | 13° |
| 2026-04-26 19:39 | 37.84275 | -77.36894 | 18449 ft | 307 kts | 13° |
| 2026-04-26 19:39 | 37.86345 | -77.36251 | 18072 ft | 305 kts | 13° |
| 2026-04-26 19:40 | 37.88400 | -77.35613 | 17701 ft | 303 kts | 13° |
| 2026-04-26 19:40 | 37.90443 | -77.34980 | 17334 ft | 302 kts | 13° |
| 2026-04-26 19:40 | 37.92477 | -77.34355 | 16978 ft | 300 kts | 13° |
| 2026-04-26 19:40 | 37.94500 | -77.33737 | 16631 ft | 298 kts | 13° |
| 2026-04-26 19:41 | 37.96518 | -77.33119 | 16296 ft | 297 kts | 13° |
| 2026-04-26 19:41 | 37.98530 | -77.32500 | 15833 ft | 303 kts | 11° |
| 2026-04-26 19:41 | 38.00614 | -77.31864 | 15306 ft | 311 kts | 11° |
| 2026-04-26 19:41 | 38.02009 | -77.31438 | 15064 ft | 312 kts | 11° |
| 2026-04-26 19:42 | 38.04827 | -77.30573 | 14617 ft | 311 kts | 11° |
| 2026-04-26 19:42 | 38.06929 | -77.29924 | 14299 ft | 311 kts | 11° |
| 2026-04-26 19:42 | 38.09027 | -77.29270 | 13992 ft | 310 kts | 11° |
| 2026-04-26 19:42 | 38.11120 | -77.28613 | 13632 ft | 309 kts | 11° |
| 2026-04-26 19:43 | 38.13205 | -77.27954 | 13292 ft | 308 kts | 11° |
| 2026-04-26 19:43 | 38.15283 | -77.27297 | 12950 ft | 307 kts | 11° |
| 2026-04-26 19:43 | 38.17331 | -77.26649 | 12812 ft | 299 kts | 11° |
| 2026-04-26 19:43 | 38.19322 | -77.26017 | 12680 ft | 291 kts | 11° |
| 2026-04-26 19:44 | 38.21268 | -77.25398 | 12513 ft | 285 kts | 11° |
| 2026-04-26 19:44 | 38.23214 | -77.24777 | 11937 ft | 290 kts | 11° |
| 2026-04-26 19:44 | 38.25175 | -77.24152 | 11364 ft | 291 kts | 11° |
| 2026-04-26 19:44 | 38.27142 | -77.23529 | 10811 ft | 291 kts | 11° |
| 2026-04-26 19:45 | 38.29106 | -77.22909 | 10263 ft | 290 kts | 11° |
| 2026-04-26 19:45 | 38.31027 | -77.22300 | 10025 ft | 278 kts | 11° |
| 2026-04-26 19:45 | 38.32859 | -77.21618 | 9604 ft | 273 kts | 20° |
| 2026-04-26 19:45 | 38.34519 | -77.20453 | 9104 ft | 273 kts | 34° |
| 2026-04-26 19:46 | 38.35964 | -77.18887 | 8592 ft | 272 kts | 40° |
| 2026-04-26 19:46 | 38.37377 | -77.17290 | 8091 ft | 270 kts | 39° |
| 2026-04-26 19:46 | 38.38778 | -77.15713 | 7584 ft | 268 kts | 39° |
| 2026-04-26 19:46 | 38.40171 | -77.14146 | 7085 ft | 266 kts | 39° |
| 2026-04-26 19:47 | 38.41534 | -77.12613 | 6596 ft | 264 kts | 39° |
| 2026-04-26 19:47 | 38.42462 | -77.11568 | 6247 ft | 263 kts | 39° |
| 2026-04-26 19:47 | 38.44224 | -77.09577 | 5974 ft | 247 kts | 39° |
| 2026-04-26 19:47 | 38.45467 | -77.08169 | 5981 ft | 233 kts | 40° |
| 2026-04-26 19:48 | 38.46668 | -77.06809 | 5994 ft | 230 kts | 39° |
| 2026-04-26 19:48 | 38.47862 | -77.05461 | 6000 ft | 229 kts | 39° |
| 2026-04-26 19:48 | 38.49057 | -77.04116 | 5997 ft | 229 kts | 39° |
| 2026-04-26 19:48 | 38.50262 | -77.02785 | 5985 ft | 229 kts | 35° |
| 2026-04-26 19:49 | 38.51628 | -77.01770 | 5979 ft | 226 kts | 20° |
| 2026-04-26 19:49 | 38.53120 | -77.01211 | 5770 ft | 222 kts | 6° |
| 2026-04-26 19:49 | 38.54650 | -77.01121 | 5528 ft | 219 kts | 354° |
| 2026-04-26 19:49 | 38.56170 | -77.01238 | 5293 ft | 219 kts | 354° |
| 2026-04-26 19:50 | 38.57704 | -77.01346 | 4912 ft | 225 kts | 355° |
| 2026-04-26 19:50 | 38.59293 | -77.01456 | 4431 ft | 233 kts | 357° |
| 2026-04-26 19:50 | 38.60943 | -77.01569 | 3951 ft | 242 kts | 358° |
| 2026-04-26 19:50 | 38.62647 | -77.01685 | 3576 ft | 244 kts | 359° |
| 2026-04-26 19:51 | 38.64308 | -77.01800 | 3446 ft | 235 kts | 359° |
| 2026-04-26 19:51 | 38.65910 | -77.01909 | 3316 ft | 227 kts | 0° |
| 2026-04-26 19:51 | 38.67459 | -77.02012 | 3179 ft | 219 kts | 359° |
| 2026-04-26 19:51 | 38.68930 | -77.02147 | 3099 ft | 204 kts | 359° |
| 2026-04-26 19:52 | 38.70327 | -77.02286 | 2927 ft | 196 kts | 359° |
| 2026-04-26 19:52 | 38.71648 | -77.02419 | 2707 ft | 186 kts | 359° |
| 2026-04-26 19:52 | 38.72904 | -77.02545 | 2464 ft | 177 kts | 0° |
| 2026-04-26 19:52 | 38.74093 | -77.02664 | 2245 ft | 170 kts | 0° |
| 2026-04-26 19:53 | 38.75259 | -77.02781 | 2024 ft | 162 kts | 360° |
| 2026-04-26 19:53 | 38.76325 | -77.02890 | 1814 ft | 147 kts | 360° |
| 2026-04-26 19:53 | 38.77327 | -77.02989 | 1613 ft | 142 kts | 1° |
| 2026-04-26 19:53 | 38.78305 | -77.03087 | 1420 ft | 140 kts | 1° |
| 2026-04-26 19:54 | 38.79259 | -77.03183 | 1187 ft | 139 kts | 0° |
| 2026-04-26 19:54 | 38.80217 | -77.03279 | 924 ft | 138 kts | 0° |
| 2026-04-26 19:54 | 38.81175 | -77.03375 | 694 ft | 135 kts | 358° |
| 2026-04-26 19:54 | 38.82087 | -77.03465 | 475 ft | 131 kts | 358° |
| 2026-04-26 19:55 | 38.82993 | -77.03552 | 300 ft | 130 kts | 358° |
| 2026-04-26 19:55 | 38.83897 | -77.03656 | 98 ft | 129 kts | 358° |
| 2026-04-26 19:55 | 38.84737 | -77.03733 | 28 ft | 106 kts | 356° |
| 2026-04-26 19:55 | 38.85244 | -77.03782 | 24 ft | 37 kts | 351° |
| 2026-04-26 19:56 | 38.85392 | -77.03798 | 24 ft | 22 kts | 355° |
| 2026-04-26 19:56 | 38.85507 | -77.03869 | 25 ft | 15 kts | 298° |
| 2026-04-26 19:56 | 38.85502 | -77.03926 | 25 ft | 0 kts | 234° |
| 2026-04-26 19:56 | 38.85501 | -77.03928 | 25 ft | 1 kts | 237° |
| 2026-04-26 19:57 | 38.85502 | -77.03970 | 24 ft | 7 kts | 282° |
| 2026-04-26 19:57 | 38.85523 | -77.04041 | 25 ft | 10 kts | 290° |
| 2026-04-26 19:57 | 38.85527 | -77.04136 | 24 ft | 11 kts | 259° |
| 2026-04-26 19:57 | 38.85500 | -77.04236 | 24 ft | 12 kts | 236° |
| 2026-04-26 19:58 | 38.85441 | -77.04237 | 24 ft | 0 kts | 163° |
| 2026-04-26 20:00 | 38.85442 | -77.04237 | 24 ft | 0 kts | 163° |